createdAt,value
2022-09-12T00:01:22.091Z,17.26
2022-09-12T00:03:51.436Z,17.27
2022-09-12T00:06:23.122Z,17.27
2022-09-12T00:08:51.222Z,17.25
2022-09-12T00:11:18.429Z,17.24
2022-09-12T00:13:44.879Z,17.22
2022-09-12T00:16:21.120Z,17.19
2022-09-12T00:18:48.430Z,17.17
2022-09-12T00:21:17.149Z,17.14
2022-09-12T00:23:44.246Z,17.12
2022-09-12T00:26:11.136Z,17.14
2022-09-12T00:28:40.024Z,17.12
2022-09-12T00:31:10.213Z,17.11
2022-09-12T00:33:36.665Z,17.10
2022-09-12T00:36:14.156Z,17.10
2022-09-12T00:38:42.036Z,17.10
2022-09-12T00:41:16.367Z,17.10
2022-09-12T00:43:46.077Z,17.10
2022-09-12T00:46:25.965Z,17.08
2022-09-12T00:48:58.826Z,17.05
2022-09-12T00:51:26.278Z,17.03
2022-09-12T00:53:55.269Z,17.01
2022-09-12T00:56:23.277Z,16.99
2022-09-12T00:59:01.372Z,16.97
2022-09-12T01:01:32.176Z,16.97
2022-09-12T01:03:59.575Z,16.96
2022-09-12T01:06:29.954Z,16.95
2022-09-12T01:08:57.565Z,16.98
2022-09-12T01:11:23.990Z,16.99
2022-09-12T01:13:50.806Z,17.00
2022-09-12T01:16:17.703Z,17.02
2022-09-12T01:19:11.067Z,17.06
2022-09-12T01:22:01.531Z,17.08
2022-09-12T01:24:39.893Z,17.10
2022-09-12T01:27:22.676Z,17.12
2022-09-12T01:30:19.578Z,17.14
2022-09-12T01:33:06.460Z,17.14
2022-09-12T01:35:45.969Z,17.14
2022-09-12T01:38:23.713Z,17.14
2022-09-12T01:41:12.210Z,17.13
2022-09-12T01:43:48.302Z,17.14
2022-09-12T01:46:19.758Z,17.13
2022-09-12T01:49:00.182Z,17.14
2022-09-12T01:51:35.857Z,17.14
2022-09-12T01:54:09.758Z,17.13
2022-09-12T01:56:40.242Z,17.14
2022-09-12T01:59:16.349Z,17.12
2022-09-12T02:01:58.719Z,17.12
2022-09-12T02:04:34.103Z,17.12
2022-09-12T02:07:08.561Z,17.12
2022-09-12T02:09:47.473Z,17.11
2022-09-12T02:12:20.028Z,17.11
2022-09-12T02:14:55.098Z,17.13
2022-09-12T02:17:26.286Z,17.11
2022-09-12T02:19:57.097Z,17.09
2022-09-12T02:22:27.673Z,17.06
2022-09-12T02:24:59.009Z,17.05
2022-09-12T02:27:37.832Z,17.07
2022-09-12T02:30:06.273Z,17.04
2022-09-12T02:32:40.707Z,17.03
2022-09-12T02:35:14.178Z,17.02
2022-09-12T02:37:46.196Z,17.00
2022-09-12T02:40:13.620Z,16.99
2022-09-12T02:42:40.423Z,16.98
2022-09-12T02:45:08.054Z,16.98
2022-09-12T02:47:40.248Z,16.98
2022-09-12T02:50:08.040Z,16.98
2022-09-12T02:52:35.866Z,16.98
2022-09-12T02:55:05.173Z,17.01
2022-09-12T02:57:32.050Z,17.00
2022-09-12T03:00:01.346Z,17.00
2022-09-12T03:02:46.568Z,17.00
2022-09-12T03:05:22.772Z,16.98
2022-09-12T03:08:00.136Z,16.99
2022-09-12T03:10:39.409Z,16.99
2022-09-12T03:13:26.425Z,17.00
2022-09-12T03:16:08.766Z,17.01
2022-09-12T03:19:06.429Z,16.96
2022-09-12T03:22:00.764Z,16.94
2022-09-12T03:24:35.025Z,16.92
2022-09-12T03:27:16.264Z,16.92
2022-09-12T03:29:44.407Z,16.91
2022-09-12T03:32:10.817Z,16.90
2022-09-12T03:34:37.325Z,16.86
2022-09-12T03:37:04.130Z,16.87
2022-09-12T03:39:30.971Z,16.89
2022-09-12T03:41:57.381Z,16.88
2022-09-12T03:44:25.485Z,16.86
2022-09-12T03:46:51.895Z,16.86
2022-09-12T03:49:18.433Z,16.86
2022-09-12T03:51:44.830Z,16.86
2022-09-12T03:54:11.578Z,16.86
2022-09-12T03:56:38.104Z,16.84
2022-09-12T03:59:06.696Z,16.84
2022-09-12T04:01:33.925Z,16.83
2022-09-12T04:04:00.493Z,16.82
2022-09-12T04:06:26.898Z,16.80
2022-09-12T04:08:54.749Z,16.78
2022-09-12T04:11:23.021Z,16.77
2022-09-12T04:13:50.006Z,16.74
2022-09-12T04:16:17.501Z,16.74
2022-09-12T04:18:45.163Z,16.75
2022-09-12T04:21:15.871Z,16.73
2022-09-12T04:23:42.962Z,16.74
2022-09-12T04:26:10.061Z,16.73
2022-09-12T04:28:38.402Z,16.73
2022-09-12T04:31:08.044Z,16.75
2022-09-12T04:33:37.482Z,16.78
2022-09-12T04:36:16.946Z,16.78
2022-09-12T04:38:45.930Z,16.76
2022-09-12T04:41:18.009Z,16.71
2022-09-12T04:43:47.617Z,16.73
2022-09-12T04:46:17.238Z,16.74
2022-09-12T04:48:43.930Z,16.75
2022-09-12T04:51:13.568Z,16.76
2022-09-12T04:53:40.513Z,16.77
2022-09-12T04:56:09.028Z,16.76
2022-09-12T04:58:36.157Z,16.74
2022-09-12T05:01:08.038Z,16.76
2022-09-12T05:03:35.164Z,16.73
2022-09-12T05:06:09.606Z,16.74
2022-09-12T05:08:36.047Z,16.74
2022-09-12T05:11:14.678Z,16.76
2022-09-12T05:13:41.878Z,16.76
2022-09-12T05:16:11.456Z,16.72
2022-09-12T05:18:38.616Z,16.71
2022-09-12T05:21:07.986Z,16.71
2022-09-12T05:23:34.639Z,16.70
2022-09-12T05:26:02.510Z,16.71
2022-09-12T05:28:34.962Z,16.71
2022-09-12T05:31:12.542Z,16.69
2022-09-12T05:33:41.062Z,16.66
2022-09-12T05:36:11.756Z,16.66
2022-09-12T05:38:38.227Z,16.65
2022-09-12T05:41:07.019Z,16.65
2022-09-12T05:43:34.457Z,16.64
2022-09-12T05:46:05.413Z,16.64
2022-09-12T05:48:35.167Z,16.66
2022-09-12T05:51:08.783Z,16.68
2022-09-12T05:53:37.373Z,16.71
2022-09-12T05:56:04.922Z,16.72
2022-09-12T05:58:31.446Z,16.73
2022-09-12T06:01:02.683Z,16.72
2022-09-12T06:03:29.094Z,16.70
2022-09-12T06:05:55.513Z,16.69
2022-09-12T06:08:21.948Z,16.68
2022-09-12T06:10:49.426Z,16.68
2022-09-12T06:13:15.775Z,16.68
2022-09-12T06:15:42.185Z,16.68
2022-09-12T06:18:08.549Z,16.69
2022-09-12T06:20:36.778Z,16.69
2022-09-12T06:23:03.189Z,16.70
2022-09-12T06:25:29.565Z,16.71
2022-09-12T06:27:55.938Z,16.73
2022-09-12T06:30:25.294Z,16.78
2022-09-12T06:32:51.994Z,16.79
2022-09-12T06:35:18.965Z,16.84
2022-09-12T06:37:45.631Z,16.88
2022-09-12T06:40:12.366Z,16.89
2022-09-12T06:42:38.777Z,16.92
2022-09-12T06:45:05.468Z,16.91
2022-09-12T06:47:31.989Z,16.90
2022-09-12T06:49:58.390Z,16.89
2022-09-12T06:52:24.914Z,16.88
2022-09-12T06:54:51.284Z,16.90
2022-09-12T06:57:17.864Z,16.91
2022-09-12T06:59:44.775Z,16.96
2022-09-12T07:02:11.249Z,17.01
2022-09-12T07:04:37.661Z,17.04
2022-09-12T07:07:04.456Z,17.10
2022-09-12T07:09:30.852Z,17.12
2022-09-12T07:11:57.198Z,17.13
2022-09-12T07:14:23.602Z,17.14
2022-09-12T07:16:50.004Z,17.14
2022-09-12T07:19:16.537Z,17.16
2022-09-12T07:21:43.008Z,17.19
2022-09-12T07:24:10.614Z,17.24
2022-09-12T07:26:38.117Z,17.29
2022-09-12T07:29:32.241Z,17.34
2022-09-12T07:31:51.598Z,17.35
2022-09-12T07:34:18.056Z,17.40
2022-09-12T07:36:44.491Z,17.40
2022-09-12T07:39:10.865Z,17.46
2022-09-12T07:41:37.250Z,17.53
2022-09-12T07:44:04.937Z,17.60
2022-09-12T07:46:31.828Z,17.67
2022-09-12T07:48:59.838Z,17.71
2022-09-12T07:51:28.091Z,17.77
2022-09-12T07:53:56.230Z,17.82
2022-09-12T07:56:27.383Z,17.85
2022-09-12T07:58:56.743Z,17.92
2022-09-12T08:01:23.372Z,17.97
2022-09-12T08:03:54.211Z,18.03
2022-09-12T08:06:24.085Z,18.08
2022-09-12T08:08:52.398Z,18.13
2022-09-12T08:11:21.042Z,18.14
2022-09-12T08:13:52.972Z,18.17
2022-09-12T08:16:23.413Z,18.22
2022-09-12T08:18:50.170Z,18.26
2022-09-12T08:21:28.034Z,18.31
2022-09-12T08:23:56.571Z,18.37
2022-09-12T08:26:23.467Z,18.43
2022-09-12T08:28:49.997Z,18.44
2022-09-12T08:31:19.114Z,18.40
2022-09-12T08:33:45.882Z,18.42
2022-09-12T08:36:20.323Z,18.46
2022-09-12T08:38:48.584Z,18.49
2022-09-12T08:41:17.765Z,18.52
2022-09-12T08:43:44.142Z,18.54
2022-09-12T08:46:27.128Z,18.60
2022-09-12T08:48:57.305Z,18.65
2022-09-12T08:51:24.332Z,18.71
2022-09-12T08:53:54.557Z,18.73
2022-09-12T08:56:21.329Z,18.74
2022-09-12T08:58:48.690Z,18.77
2022-09-12T09:01:31.638Z,18.70
2022-09-12T09:04:07.017Z,18.71
2022-09-12T09:06:47.304Z,18.76
2022-09-12T09:09:42.864Z,18.76
2022-09-12T09:12:31.165Z,18.82
2022-09-12T09:15:04.940Z,18.87
2022-09-12T09:17:40.537Z,18.93
2022-09-12T09:20:22.663Z,18.95
2022-09-12T09:22:55.030Z,19.01
2022-09-12T09:25:29.239Z,19.02
2022-09-12T09:28:16.203Z,19.05
2022-09-12T09:30:43.747Z,19.02
2022-09-12T09:33:20.962Z,19.14
2022-09-12T09:35:54.816Z,19.22
2022-09-12T09:39:00.693Z,19.24
2022-09-12T09:41:39.730Z,19.29
2022-09-12T09:46:37.470Z,19.36
2022-09-12T09:49:06.991Z,19.42
2022-09-12T09:51:39.519Z,19.45
2022-09-12T09:54:25.380Z,19.57
2022-09-12T09:56:52.289Z,19.58
2022-09-12T09:59:19.969Z,19.57
2022-09-12T10:01:54.770Z,19.59
2022-09-12T10:04:24.855Z,19.64
2022-09-12T10:06:57.258Z,19.71
2022-09-12T10:09:28.773Z,19.83
2022-09-12T10:11:56.826Z,19.89
2022-09-12T10:14:42.104Z,19.94
2022-09-12T10:17:34.202Z,19.91
2022-09-12T10:20:20.473Z,19.93
2022-09-12T10:22:48.897Z,19.99
2022-09-12T10:25:18.892Z,20.10
2022-09-12T10:27:53.505Z,20.05
2022-09-12T10:30:24.546Z,20.05
2022-09-12T10:32:53.954Z,20.07
2022-09-12T10:35:24.005Z,20.15
2022-09-12T10:37:57.677Z,20.24
2022-09-12T10:40:37.248Z,20.29
2022-09-12T10:43:26.301Z,20.32
2022-09-12T10:45:58.245Z,20.38
2022-09-12T10:48:24.626Z,20.36
2022-09-12T10:50:51.855Z,20.36
2022-09-12T10:53:21.526Z,20.34
2022-09-12T10:56:10.538Z,20.32
2022-09-12T10:58:58.377Z,20.25
2022-09-12T11:01:45.771Z,20.31
2022-09-12T11:04:31.945Z,20.39
2022-09-12T11:07:25.990Z,20.44
2022-09-12T11:10:13.361Z,20.53
2022-09-12T11:13:06.000Z,20.66
2022-09-12T11:15:54.123Z,20.67
2022-09-12T11:18:48.647Z,20.70
2022-09-12T11:21:27.209Z,20.74
2022-09-12T11:24:22.966Z,20.72
2022-09-12T11:27:11.270Z,20.77
2022-09-12T11:29:54.431Z,20.79
2022-09-12T11:32:42.558Z,20.87
2022-09-12T11:35:17.415Z,20.90
2022-09-12T11:38:11.215Z,20.96
2022-09-12T11:40:59.467Z,20.99
2022-09-12T11:43:51.738Z,21.00
2022-09-12T11:46:25.503Z,21.09
2022-09-12T11:49:21.698Z,21.15
2022-09-12T11:52:02.846Z,21.17
2022-09-12T11:54:32.251Z,21.22
2022-09-12T11:57:24.457Z,21.30
2022-09-12T12:00:04.368Z,21.33
2022-09-12T12:02:43.366Z,21.42
2022-09-12T12:05:26.196Z,21.42
2022-09-12T12:07:58.494Z,21.53
2022-09-12T12:10:41.545Z,21.55
2022-09-12T12:13:17.947Z,21.59
2022-09-12T12:15:54.893Z,21.62
2022-09-12T12:18:27.105Z,21.67
2022-09-12T12:20:55.039Z,21.72
2022-09-12T12:23:31.237Z,21.77
2022-09-12T12:26:00.116Z,21.71
2022-09-12T12:28:41.792Z,21.76
2022-09-12T12:31:10.813Z,21.79
2022-09-12T12:33:37.218Z,21.86
2022-09-12T12:36:07.683Z,21.91
2022-09-12T12:38:38.890Z,21.96
2022-09-12T12:41:17.390Z,22.03
2022-09-12T12:43:51.501Z,22.03
2022-09-12T12:46:23.176Z,22.03
2022-09-12T12:48:52.557Z,22.06
2022-09-12T12:51:39.753Z,22.08
2022-09-12T12:54:41.032Z,22.14
2022-09-12T12:57:13.161Z,22.23
2022-09-12T12:59:49.109Z,22.27
2022-09-12T13:02:27.026Z,22.34
2022-09-12T13:04:55.355Z,22.36
2022-09-12T13:07:28.884Z,22.42
2022-09-12T13:09:57.286Z,22.44
2022-09-12T13:12:25.456Z,22.45
2022-09-12T13:14:58.167Z,22.43
2022-09-12T13:17:27.448Z,22.41
2022-09-12T13:20:26.732Z,22.44
2022-09-12T13:22:53.052Z,22.50
2022-09-12T13:25:32.320Z,22.49
2022-09-12T13:28:04.920Z,22.50
2022-09-12T13:30:34.960Z,22.49
2022-09-12T13:33:14.631Z,22.50
2022-09-12T13:36:00.940Z,22.47
2022-09-12T13:38:48.714Z,22.46
2022-09-12T13:41:36.927Z,22.47
2022-09-12T13:44:09.544Z,22.46
2022-09-12T13:46:37.859Z,22.46
2022-09-12T13:49:30.874Z,22.46
2022-09-12T13:52:02.480Z,22.55
2022-09-12T13:54:30.638Z,22.59
2022-09-12T13:56:57.272Z,22.61
2022-09-12T13:59:24.482Z,22.62
2022-09-12T14:01:50.893Z,22.61
2022-09-12T14:04:45.893Z,22.66
2022-09-12T14:07:22.095Z,22.55
2022-09-12T14:09:58.180Z,22.53
2022-09-12T14:12:40.038Z,22.53
2022-09-12T14:15:09.490Z,22.53
2022-09-12T14:17:39.517Z,22.57
2022-09-12T14:20:16.095Z,22.54
2022-09-12T14:22:42.805Z,22.53
2022-09-12T14:25:19.226Z,22.57
2022-09-12T14:27:49.319Z,22.64
2022-09-12T14:30:27.036Z,22.67
2022-09-12T14:33:11.609Z,22.70
2022-09-12T14:35:43.456Z,22.74
2022-09-12T14:38:16.392Z,22.73
2022-09-12T14:40:44.311Z,22.71
2022-09-12T14:43:30.312Z,22.71
2022-09-12T14:46:03.058Z,22.76
2022-09-12T14:48:37.592Z,22.78
2022-09-12T14:51:05.340Z,22.77
2022-09-12T14:53:34.951Z,22.77
2022-09-12T14:56:10.756Z,22.76
2022-09-12T14:58:40.994Z,22.76
2022-09-12T15:01:07.811Z,22.77
2022-09-12T15:03:48.718Z,22.76
2022-09-12T15:06:25.426Z,22.70
2022-09-12T15:08:54.535Z,22.68
2022-09-12T15:11:21.220Z,22.67
2022-09-12T15:13:47.787Z,22.63
2022-09-12T15:16:14.575Z,22.60
2022-09-12T15:18:41.001Z,22.59
2022-09-12T15:21:11.349Z,22.58
2022-09-12T15:23:40.361Z,22.60
2022-09-12T15:26:07.649Z,22.57
2022-09-12T15:28:34.264Z,22.60
2022-09-12T15:31:25.560Z,22.58
2022-09-12T15:33:52.997Z,22.57
2022-09-12T15:36:21.048Z,22.57
2022-09-12T15:38:48.482Z,22.56
2022-09-12T15:41:36.850Z,22.57
2022-09-12T15:44:08.156Z,22.55
2022-09-12T15:46:34.663Z,22.52
2022-09-12T15:49:01.210Z,22.54
2022-09-12T15:51:27.707Z,22.53
2022-09-12T15:53:54.685Z,22.55
2022-09-12T15:56:22.181Z,22.57
2022-09-12T15:58:58.755Z,22.58
2022-09-12T16:01:27.795Z,22.57
2022-09-12T16:03:54.384Z,22.53
2022-09-12T16:06:22.107Z,22.51
2022-09-12T16:08:48.797Z,22.48
2022-09-12T16:11:21.685Z,22.43
2022-09-12T16:13:48.722Z,22.40
2022-09-12T16:16:15.156Z,22.40
2022-09-12T16:18:41.859Z,22.37
2022-09-12T16:21:14.039Z,22.33
2022-09-12T16:23:45.834Z,22.34
2022-09-12T16:26:12.569Z,22.33
2022-09-12T16:28:39.028Z,22.35
2022-09-12T16:31:07.344Z,22.37
2022-09-12T16:33:34.894Z,22.35
2022-09-12T16:36:09.454Z,22.35
2022-09-12T16:38:47.567Z,22.37
2022-09-12T16:41:15.482Z,22.42
2022-09-12T16:43:42.797Z,22.45
2022-09-12T16:46:15.787Z,22.42
2022-09-12T16:48:48.048Z,22.40
2022-09-12T16:51:22.614Z,22.41
2022-09-12T16:53:49.199Z,22.41
2022-09-12T16:56:15.669Z,22.35
2022-09-12T16:58:42.522Z,22.37
2022-09-12T17:01:14.754Z,22.39
2022-09-12T17:03:41.844Z,22.38
2022-09-12T17:06:13.798Z,22.34
2022-09-12T17:08:42.764Z,22.31
2022-09-12T17:11:12.453Z,22.34
2022-09-12T17:14:02.680Z,22.34
2022-09-12T17:16:27.213Z,22.30
2022-09-12T17:18:54.060Z,22.28
2022-09-12T17:21:21.210Z,22.27
2022-09-12T17:23:47.847Z,22.28
2022-09-12T17:26:14.912Z,22.28
2022-09-12T17:28:41.695Z,22.30
2022-09-12T17:31:13.225Z,22.30
2022-09-12T17:33:39.884Z,22.27
2022-09-12T17:36:10.369Z,22.26
2022-09-12T17:38:39.484Z,22.25
2022-09-12T17:41:19.912Z,22.25
2022-09-12T17:43:50.644Z,22.27
2022-09-12T17:46:18.995Z,22.25
2022-09-12T17:48:45.445Z,22.24
2022-09-12T17:51:14.349Z,22.24
2022-09-12T17:53:41.906Z,22.25
2022-09-12T17:56:09.289Z,22.25
2022-09-12T17:58:36.177Z,22.21
2022-09-12T18:01:33.482Z,22.21
2022-09-12T18:04:01.656Z,22.17
2022-09-12T18:06:29.395Z,22.16
2022-09-12T18:08:58.767Z,22.14
2022-09-12T18:11:25.115Z,22.11
2022-09-12T18:13:51.530Z,22.08
2022-09-12T18:16:18.397Z,22.06
2022-09-12T18:18:44.790Z,22.03
2022-09-12T18:21:12.070Z,22.00
2022-09-12T18:23:38.965Z,21.95
2022-09-12T18:26:08.304Z,21.92
2022-09-12T18:28:37.170Z,21.91
2022-09-12T18:31:04.345Z,21.91
2022-09-12T18:33:30.825Z,21.88
2022-09-12T18:35:57.186Z,21.84
2022-09-12T18:38:23.581Z,21.81
2022-09-12T18:40:49.925Z,21.77
2022-09-12T18:43:16.290Z,21.72
2022-09-12T18:45:42.666Z,21.71
2022-09-12T18:48:09.352Z,21.68
2022-09-12T18:50:35.754Z,21.68
2022-09-12T18:53:02.148Z,21.67
2022-09-12T18:55:30.310Z,21.66
2022-09-12T18:57:56.725Z,21.64
2022-09-12T19:00:23.100Z,21.63
2022-09-12T19:02:49.500Z,21.61
2022-09-12T19:05:15.911Z,21.59
2022-09-12T19:07:42.267Z,21.56
2022-09-12T19:10:08.999Z,21.51
2022-09-12T19:12:35.468Z,21.47
2022-09-12T19:15:02.010Z,21.46
2022-09-12T19:17:28.690Z,21.42
2022-09-12T19:19:55.380Z,21.40
2022-09-12T19:22:22.147Z,21.37
2022-09-12T19:24:48.518Z,21.36
2022-09-12T19:27:15.965Z,21.36
2022-09-12T19:29:42.409Z,21.35
2022-09-12T19:32:08.795Z,21.35
2022-09-12T19:34:35.183Z,21.35
2022-09-12T19:37:01.553Z,21.34
2022-09-12T19:39:28.062Z,21.34
2022-09-12T19:41:54.442Z,21.34
2022-09-12T19:44:20.893Z,21.33
2022-09-12T19:46:47.659Z,21.29
2022-09-12T19:49:14.089Z,21.26
2022-09-12T19:51:40.514Z,21.22
2022-09-12T19:54:07.599Z,21.20
2022-09-12T19:56:33.985Z,21.17
2022-09-12T19:59:00.348Z,21.16
2022-09-12T20:01:28.487Z,21.14
2022-09-12T20:03:56.667Z,21.15
2022-09-12T20:06:23.190Z,21.13
2022-09-12T20:08:49.863Z,21.10
2022-09-12T20:11:21.460Z,21.09
2022-09-12T20:13:48.021Z,21.06
2022-09-12T20:16:21.750Z,21.06
2022-09-12T20:18:53.861Z,21.06
2022-09-12T20:21:25.110Z,21.05
2022-09-12T20:23:51.804Z,21.00
2022-09-12T20:26:20.053Z,20.99
2022-09-12T20:28:46.413Z,20.98
2022-09-12T20:31:15.038Z,20.98
2022-09-12T20:33:41.722Z,20.98
2022-09-12T20:36:11.562Z,21.01
2022-09-12T20:38:38.630Z,20.99
2022-09-12T20:41:07.173Z,21.00
2022-09-12T20:43:33.506Z,20.97
2022-09-12T20:45:59.913Z,20.97
2022-09-12T20:48:27.060Z,20.96
2022-09-12T20:50:53.465Z,20.94
2022-09-12T20:53:20.106Z,20.93
2022-09-12T20:55:52.854Z,20.93
2022-09-12T20:58:20.393Z,20.91
2022-09-12T21:00:47.114Z,20.91
2022-09-12T21:03:14.677Z,20.90
2022-09-12T21:05:45.253Z,20.89
2022-09-12T21:08:12.105Z,20.89
2022-09-12T21:10:41.601Z,20.88
2022-09-12T21:13:12.561Z,20.89
2022-09-12T21:15:39.987Z,20.90
2022-09-12T21:18:07.138Z,20.90
2022-09-12T21:20:33.926Z,20.91
2022-09-12T21:23:00.399Z,20.91
2022-09-12T21:25:28.875Z,20.92
2022-09-12T21:27:55.404Z,20.93
2022-09-12T21:30:22.320Z,20.92
2022-09-12T21:32:48.790Z,20.92
2022-09-12T21:35:15.241Z,20.93
2022-09-12T21:37:41.633Z,20.91
2022-09-12T21:40:08.379Z,20.93
2022-09-12T21:42:34.800Z,20.91
2022-09-12T21:45:01.198Z,20.91
2022-09-12T21:47:27.552Z,20.93
2022-09-12T21:49:55.190Z,20.91
2022-09-12T21:52:21.977Z,20.91
2022-09-12T21:54:48.351Z,20.92
2022-09-12T21:57:14.749Z,20.93
2022-09-12T21:59:41.351Z,20.93
2022-09-12T22:02:08.635Z,20.93
2022-09-12T22:04:35.065Z,20.91
2022-09-12T22:07:02.054Z,20.89
2022-09-12T22:09:28.460Z,20.88
2022-09-12T22:11:55.428Z,20.86
2022-09-12T22:14:21.801Z,20.87
2022-09-12T22:16:48.364Z,20.87
2022-09-12T22:19:14.993Z,20.86
2022-09-12T22:22:01.345Z,20.84
2022-09-12T22:24:27.930Z,20.86
2022-09-12T22:26:54.954Z,20.86
2022-09-12T22:29:21.821Z,20.86
2022-09-12T22:31:48.429Z,20.85
2022-09-12T22:34:15.343Z,20.83
2022-09-12T22:36:41.810Z,20.83
2022-09-12T22:39:08.555Z,20.81
2022-09-12T22:41:34.932Z,20.80
2022-09-12T22:44:01.383Z,20.80
2022-09-12T22:46:27.836Z,20.77
2022-09-12T22:48:55.880Z,20.75
2022-09-12T22:51:22.253Z,20.75
2022-09-12T22:53:48.825Z,20.74
2022-09-12T22:56:15.542Z,20.72
2022-09-12T22:58:42.139Z,20.73
2022-09-12T23:01:08.640Z,20.72
2022-09-12T23:03:36.228Z,20.73
2022-09-12T23:06:04.149Z,20.73
2022-09-12T23:08:30.533Z,20.74
2022-09-12T23:11:19.209Z,20.72
2022-09-12T23:13:48.081Z,20.72
2022-09-12T23:16:20.174Z,20.71
2022-09-12T23:18:47.563Z,20.69
2022-09-12T23:21:16.013Z,20.69
2022-09-12T23:23:42.573Z,20.66
2022-09-12T23:26:13.354Z,20.66
2022-09-12T23:28:40.837Z,20.65
2022-09-12T23:31:09.401Z,20.63
2022-09-12T23:33:36.306Z,20.62
2022-09-12T23:36:08.777Z,20.61
2022-09-12T23:38:36.163Z,20.59
2022-09-12T23:41:03.597Z,20.58
2022-09-12T23:43:30.854Z,20.59
2022-09-12T23:45:58.007Z,20.59
2022-09-12T23:48:24.563Z,20.59
2022-09-12T23:50:51.623Z,20.60
2022-09-12T23:53:18.380Z,20.57
2022-09-12T23:55:44.819Z,20.56
2022-09-12T23:58:12.065Z,20.54
